Time;durP1;ratioP1;P1;durP2;ratioP2;P2;SDS_P1;SDS_P2;PMS_P1;PMS_P2;Temp;Humidity;BMP_temperature;BMP_pressure;BME280_temperature;BME280_humidity;BME280_pressure;Samples;Min_cycle;Max_cycle;Signal;HPM_P1;HPM_P2
2022/08/22 00:01:58;;;;;;;;;8.67;8.67;;;;;22.42;57.91;101016.28;5080316;28;45385;-78
2022/08/22 00:04:47;;;;;;;;;10.00;8.00;;;;;22.36;58.35;101009.16;5079813;27;45513;-78
2022/08/22 00:07:20;;;;;;;;;6.33;6.00;;;;;22.37;57.76;101030.56;5080022;28;45222;-78
2022/08/22 00:10:07;;;;;;;;;7.00;6.67;;;;;22.27;57.76;101020.38;5079625;28;45354;-78
2022/08/22 00:12:44;;;;;;;;;8.00;7.00;;;;;22.23;58.17;101004.91;5079629;28;45584;-78
2022/08/22 00:15:27;;;;;;;;;7.00;6.67;;;;;22.32;58.29;101019.66;5080017;28;45290;-78
2022/08/22 00:18:01;;;;;;;;;7.33;5.00;;;;;22.31;58.22;101020.72;5082324;27;45218;-78
2022/08/22 00:20:35;;;;;;;;;8.67;8.00;;;;;22.29;58.93;101017.44;5080088;28;45279;-77
2022/08/22 00:23:36;;;;;;;;;6.00;6.00;;;;;22.23;58.82;101005.69;5079744;28;45314;-78
2022/08/22 00:26:08;;;;;;;;;8.00;8.00;;;;;22.14;58.72;100997.19;5079453;27;45532;-78
2022/08/22 00:28:39;;;;;;;;;7.00;7.00;;;;;22.13;58.69;100998.25;5079808;27;45221;-78
2022/08/22 00:31:31;;;;;;;;;5.67;5.67;;;;;22.16;58.74;100992.34;5079831;28;45318;-77
2022/08/22 00:34:05;;;;;;;;;5.33;5.33;;;;;22.16;59.27;100991.53;5079648;27;45459;-78
2022/08/22 00:36:30;;;;;;;;;6.00;6.00;;;;;22.13;59.37;100989.31;5079276;28;46652;-78
2022/08/22 00:39:06;;;;;;;;;11.00;6.67;;;;;22.12;59.24;100993.09;5079410;28;45433;-78
2022/08/22 00:41:55;;;;;;;;;6.00;5.00;;;;;22.06;59.59;100993.00;5079855;28;45439;-78
2022/08/22 00:44:20;;;;;;;;;8.67;6.67;;;;;22.01;59.60;100992.09;5079680;28;45405;-78
2022/08/22 00:47:20;;;;;;;;;7.00;7.00;;;;;21.91;59.75;100981.94;5079190;28;46058;-78
2022/08/22 00:50:11;;;;;;;;;7.67;6.00;;;;;21.88;60.35;100993.25;5079348;28;45661;-77
2022/08/22 00:52:54;;;;;;;;;6.00;6.00;;;;;21.84;60.69;101000.22;5079275;28;45148;-78
2022/08/22 00:55:26;;;;;;;;;7.67;7.00;;;;;21.78;60.19;100994.69;5079067;28;45321;-78
2022/08/22 00:58:22;;;;;;;;;9.67;9.67;;;;;21.76;60.52;100996.00;5078791;28;45361;-78
2022/08/22 01:00:55;;;;;;;;;6.00;6.00;;;;;21.70;60.89;100987.75;5079302;28;45717;-78
2022/08/22 01:03:45;;;;;;;;;8.33;7.67;;;;;21.69;60.95;100988.00;5079730;28;45248;-78
2022/08/22 01:06:29;;;;;;;;;8.00;7.00;;;;;21.67;61.01;100982.03;5079258;28;45325;-78
2022/08/22 01:09:19;;;;;;;;;9.00;9.00;;;;;21.64;61.08;100985.22;5079003;28;45417;-78
2022/08/22 01:11:50;;;;;;;;;8.33;6.00;;;;;21.64;61.56;100987.94;5079400;28;45423;-78
2022/08/22 01:14:37;;;;;;;;;10.33;10.33;;;;;21.65;61.05;100994.97;5078841;28;45333;-77
2022/08/22 01:17:26;;;;;;;;;7.33;7.33;;;;;21.59;61.54;100985.94;5081738;27;45403;-78
2022/08/22 01:20:10;;;;;;;;;8.67;8.67;;;;;21.68;61.05;101005.31;5092961;27;46983;-77
2022/08/22 01:23:04;;;;;;;;;11.67;9.33;;;;;21.67;61.09;101014.50;5078974;28;45353;-78
2022/08/22 01:25:55;;;;;;;;;10.00;8.67;;;;;21.67;61.50;101006.38;5079200;28;45367;-78
2022/08/22 01:28:46;;;;;;;;;10.67;8.33;;;;;21.69;61.26;101012.34;5078888;28;45337;-78
2022/08/22 01:31:32;;;;;;;;;10.33;9.67;;;;;21.72;61.84;101011.88;5079045;28;46375;-78
2022/08/22 01:34:25;;;;;;;;;10.33;9.33;;;;;21.73;61.43;101010.00;5079030;28;45667;-78
2022/08/22 01:37:22;;;;;;;;;8.67;8.67;;;;;21.75;61.59;101011.41;5078677;27;45688;-78
2022/08/22 01:40:24;;;;;;;;;8.00;7.67;;;;;21.75;61.90;101008.72;5078522;28;45452;-77
2022/08/22 01:43:05;;;;;;;;;7.33;7.33;;;;;21.74;61.80;100998.09;5078674;28;45413;-78
2022/08/22 01:45:48;;;;;;;;;7.67;7.67;;;;;21.72;62.05;100986.69;5078660;28;45322;-78
2022/08/22 01:48:32;;;;;;;;;9.00;9.00;;;;;21.71;61.83;100988.59;5078755;28;45342;-78
2022/08/22 01:51:44;;;;;;;;;8.00;8.00;;;;;21.66;61.94;100980.38;5078358;28;45282;-78
2022/08/22 01:54:36;;;;;;;;;10.00;10.00;;;;;21.54;62.41;100972.31;5078032;28;45433;-77
2022/08/22 01:57:06;;;;;;;;;9.33;8.67;;;;;21.56;62.11;100979.16;5078482;28;45370;-78
2022/08/22 01:59:39;;;;;;;;;10.67;7.67;;;;;21.50;62.14;100971.19;5078482;28;45416;-78
2022/08/22 02:02:27;;;;;;;;;10.67;8.33;;;;;21.51;62.87;100980.91;5079100;28;45555;-78
2022/08/22 02:04:55;;;;;;;;;10.00;8.00;;;;;21.48;62.79;100979.53;5081901;27;46227;-78
2022/08/22 02:07:27;;;;;;;;;8.00;8.00;;;;;21.40;62.86;100969.13;5081953;28;45330;-78
2022/08/22 02:09:59;;;;;;;;;9.33;6.33;;;;;21.44;62.65;100978.38;5081752;28;45292;-78
2022/08/22 02:12:30;;;;;;;;;8.00;8.00;;;;;21.43;62.57;100977.53;5081907;28;45342;-78
2022/08/22 02:15:13;;;;;;;;;10.00;8.33;;;;;21.41;62.56;100976.97;5081606;28;45361;-78
2022/08/22 02:18:07;;;;;;;;;8.67;7.33;;;;;21.39;62.88;100979.09;5084363;27;45463;-78
2022/08/22 02:20:56;;;;;;;;;9.33;9.00;;;;;21.33;62.71;100971.16;5081928;28;45378;-78
2022/08/22 02:23:43;;;;;;;;;10.00;10.00;;;;;21.32;63.17;100981.13;5081439;28;45264;-78
2022/08/22 02:26:17;;;;;;;;;8.67;8.67;;;;;21.25;63.39;100978.56;5081278;28;45321;-78
2022/08/22 02:29:00;;;;;;;;;8.33;8.33;;;;;21.27;63.31;100987.25;5081837;28;45532;-78
2022/08/22 02:31:39;;;;;;;;;4.00;4.00;;;;;21.23;63.34;100985.25;5081676;28;45427;-78
2022/08/22 02:34:31;;;;;;;;;11.00;11.00;;;;;21.17;63.11;100979.78;5081754;28;45358;-78
2022/08/22 02:37:34;;;;;;;;;14.00;14.00;;;;;21.16;63.12;100980.03;5080986;28;46352;-78
2022/08/22 02:40:11;;;;;;;;;10.33;9.33;;;;;21.12;63.64;100986.94;5081073;28;45298;-78
2022/08/22 02:43:01;;;;;;;;;12.00;10.00;;;;;21.03;63.81;100972.97;5081566;28;45345;-78
2022/08/22 02:46:08;;;;;;;;;9.00;8.67;;;;;21.03;63.64;100981.09;5081209;28;45312;-77
2022/08/22 02:48:46;;;;;;;;;11.00;11.00;;;;;20.98;63.68;100987.22;5080476;28;45228;-78
2022/08/22 02:51:20;;;;;;;;;11.00;10.33;;;;;20.92;63.83;100988.97;5067409;28;45165;-78
2022/08/22 02:54:25;;;;;;;;;11.33;9.33;;;;;20.87;64.09;100990.72;5081322;28;45235;-78
2022/08/22 02:57:02;;;;;;;;;10.67;9.33;;;;;20.83;64.47;100993.06;5081075;28;45332;-78
2022/08/22 02:59:38;;;;;;;;;11.67;10.33;;;;;20.77;64.67;100980.53;5080983;28;45400;-78
2022/08/22 03:02:28;;;;;;;;;10.67;10.33;;;;;20.74;64.69;100978.31;5081132;28;45348;-78
2022/08/22 03:04:58;;;;;;;;;11.00;10.00;;;;;20.65;64.83;100984.06;5081298;28;45319;-78
2022/08/22 03:07:38;;;;;;;;;11.00;9.67;;;;;20.63;64.83;100979.97;5081083;28;46760;-78
2022/08/22 03:10:06;;;;;;;;;12.00;11.00;;;;;20.65;65.18;100983.25;5080694;28;45219;-78
2022/08/22 03:12:50;;;;;;;;;9.00;8.00;;;;;20.63;65.38;100982.66;5080580;28;45280;-78
2022/08/22 03:15:34;;;;;;;;;11.00;9.00;;;;;20.59;65.33;100986.91;5080139;28;45563;-78
2022/08/22 03:18:24;;;;;;;;;12.00;9.33;;;;;20.58;65.79;100985.22;5083429;27;45427;-78
2022/08/22 03:20:57;;;;;;;;;7.00;7.00;;;;;20.52;65.58;100987.84;5080764;28;46428;-78
2022/08/22 03:23:39;;;;;;;;;12.33;11.00;;;;;20.48;65.63;100981.28;5080497;28;45235;-78
2022/08/22 03:26:23;;;;;;;;;10.00;9.33;;;;;20.42;66.04;100974.09;5080849;28;45277;-78
2022/08/22 03:28:55;;;;;;;;;12.00;11.33;;;;;20.35;65.80;100976.09;5080666;28;45313;-78
2022/08/22 03:31:24;;;;;;;;;9.33;9.33;;;;;20.30;66.01;100980.31;5080532;28;46363;-78
2022/08/22 03:34:21;;;;;;;;;9.67;9.67;;;;;20.29;66.28;100983.22;5080535;28;45430;-78
2022/08/22 03:36:58;;;;;;;;;10.00;9.00;;;;;20.26;66.26;100987.22;5080467;27;45264;-78
2022/08/22 03:39:50;;;;;;;;;10.33;10.33;;;;;20.23;66.50;100989.59;5080198;28;45508;-78
2022/08/22 03:42:40;;;;;;;;;11.67;11.67;;;;;20.20;66.71;100990.84;5080622;28;46468;-78
2022/08/22 03:45:11;;;;;;;;;9.67;9.67;;;;;20.20;67.13;100988.16;5080269;28;45338;-78
2022/08/22 03:48:22;;;;;;;;;10.00;10.00;;;;;20.19;67.30;100983.81;5080514;28;45290;-78
2022/08/22 03:50:53;;;;;;;;;10.33;9.67;;;;;20.17;67.21;100989.47;5080033;28;45535;-77
2022/08/22 03:53:40;;;;;;;;;9.00;9.00;;;;;20.13;67.20;100977.50;5080056;28;45596;-78
2022/08/22 03:56:41;;;;;;;;;10.00;9.33;;;;;20.16;67.76;100979.72;5079635;28;45457;-77
2022/08/22 03:59:38;;;;;;;;;11.00;9.33;;;;;20.13;67.58;100982.88;5080041;28;45307;-78
2022/08/22 04:02:06;;;;;;;;;9.33;8.00;;;;;20.10;67.92;100980.66;5079404;28;45350;-78
2022/08/22 04:05:05;;;;;;;;;8.33;8.00;;;;;20.08;68.07;100984.66;5079771;28;45381;-78
2022/08/22 04:07:48;;;;;;;;;10.33;9.33;;;;;20.04;67.82;100978.88;5079937;27;45340;-78
2022/08/22 04:10:51;;;;;;;;;10.33;10.00;;;;;20.01;68.10;100971.25;5084668;27;45449;-78
2022/08/22 04:13:38;;;;;;;;;9.00;9.00;;;;;19.97;68.48;100967.34;5079690;28;45412;-78
2022/08/22 04:16:30;;;;;;;;;9.00;8.67;;;;;19.88;68.50;100945.28;5092750;27;46341;-78
2022/08/22 04:19:05;;;;;;;;;9.33;9.00;;;;;19.94;68.74;100953.25;5079874;28;45550;-77
2022/08/22 04:21:52;;;;;;;;;13.00;13.00;;;;;19.93;68.52;100950.78;5079860;28;45334;-78
2022/08/22 04:24:36;;;;;;;;;11.00;10.00;;;;;19.85;68.78;100948.44;5079441;28;45406;-78
2022/08/22 04:27:19;;;;;;;;;8.00;7.33;;;;;19.92;69.03;100966.16;5079721;28;45430;-78
2022/08/22 04:30:13;;;;;;;;;11.67;10.33;;;;;19.93;69.01;100967.81;5079652;28;45613;-77
2022/08/22 04:32:53;;;;;;;;;11.00;10.00;;;;;19.93;68.96;100965.13;5079793;28;45447;-78
2022/08/22 04:35:31;;;;;;;;;13.67;11.67;;;;;19.97;69.15;100965.47;5079372;28;45391;-78
2022/08/22 04:38:03;;;;;;;;;12.00;10.00;;;;;19.96;68.42;100965.72;5079317;28;46482;-78
2022/08/22 04:40:49;;;;;;;;;9.00;9.00;;;;;19.99;68.79;100970.66;5079532;28;45330;-78
2022/08/22 04:43:28;;;;;;;;;10.67;10.67;;;;;19.96;68.93;100954.94;5079504;28;45402;-78
2022/08/22 04:46:02;;;;;;;;;11.00;9.00;;;;;20.00;69.05;100964.19;5083738;27;45500;-78
2022/08/22 04:48:36;;;;;;;;;10.33;8.33;;;;;20.02;69.29;100973.72;5079201;28;45305;-78
2022/08/22 04:51:15;;;;;;;;;12.00;10.67;;;;;19.98;69.25;100961.72;5079226;28;45275;-78
2022/08/22 04:54:34;;;;;;;;;10.67;10.67;;;;;20.09;69.16;100980.88;5079296;28;45371;-78
2022/08/22 04:57:09;;;;;;;;;12.00;10.33;;;;;20.04;69.22;100966.22;5016540;28;45526;-78
2022/08/22 04:59:35;;;;;;;;;12.00;11.00;;;;;20.15;69.35;100969.16;5069941;27;45453;-78
2022/08/22 05:02:05;;;;;;;;;13.33;12.00;;;;;20.16;69.30;100974.31;5079263;28;45326;-78
2022/08/22 05:04:39;;;;;;;;;11.00;10.00;;;;;20.15;68.97;100971.88;5079229;28;45412;-78
2022/08/22 05:07:14;;;;;;;;;11.00;8.67;;;;;20.18;69.37;100983.00;5079143;27;45437;-78
2022/08/22 05:10:02;;;;;;;;;11.00;9.00;;;;;20.16;68.96;100970.81;5078676;28;46297;-78
2022/08/22 05:12:34;;;;;;;;;13.33;12.33;;;;;20.30;69.41;100988.41;5078827;28;46144;-78
2022/08/22 05:15:20;;;;;;;;;9.67;9.67;;;;;20.36;69.52;100991.22;5079391;28;45302;-78
2022/08/22 05:17:48;;;;;;;;;7.33;7.33;;;;;20.36;69.19;100988.53;5081660;27;45810;-78
2022/08/22 05:20:19;;;;;;;;;10.00;9.67;;;;;20.43;68.99;100997.34;5074019;28;45532;-78
2022/08/22 05:22:50;;;;;;;;;8.00;8.00;;;;;20.47;68.84;101005.78;5065469;28;45466;-78
2022/08/22 05:25:20;;;;;;;;;11.00;11.00;;;;;20.50;68.90;100994.53;5070606;28;45262;-78
2022/08/22 05:27:53;;;;;;;;;11.67;11.33;;;;;20.55;68.65;100997.34;5078758;28;45337;-78
2022/08/22 05:30:24;;;;;;;;;12.67;10.67;;;;;20.53;68.35;101004.88;5078988;28;46239;-78
2022/08/22 05:32:57;;;;;;;;;8.33;8.33;;;;;20.58;69.03;101014.94;5079851;28;45177;-78
2022/08/22 05:35:49;;;;;;;;;8.67;8.33;;;;;20.66;69.30;101017.28;5096970;27;45334;-79
2022/08/22 05:38:19;;;;;;;;;8.33;8.00;;;;;20.68;68.95;101007.06;5082123;28;45497;-78
2022/08/22 05:40:54;;;;;;;;;12.33;10.67;;;;;20.72;68.67;101000.16;5065999;28;46623;-78
2022/08/22 05:43:22;;;;;;;;;9.67;9.67;;;;;20.78;68.58;101003.78;5085627;28;45282;-80
2022/08/22 05:45:48;;;;;;;;;10.67;10.67;;;;;20.86;68.94;101011.50;5085716;28;45443;-79
2022/08/22 05:48:21;;;;;;;;;9.67;9.67;;;;;20.92;68.70;101023.31;5084076;27;45354;-78
2022/08/22 05:51:03;;;;;;;;;11.67;10.00;;;;;20.96;68.55;101035.25;5084569;27;46574;-78
2022/08/22 05:53:36;;;;;;;;;14.00;11.00;;;;;21.04;68.78;101026.78;5082305;28;45434;-78
2022/08/22 05:56:06;;;;;;;;;9.00;9.00;;;;;21.11;68.23;101023.13;5082194;28;45354;-78
2022/08/22 05:58:37;;;;;;;;;10.00;9.00;;;;;21.18;68.12;101027.34;5072748;28;45290;-78
2022/08/22 06:01:05;;;;;;;;;9.33;8.00;;;;;21.25;67.47;101032.59;5079164;28;46330;-78
2022/08/22 06:03:43;;;;;;;;;10.67;9.67;;;;;21.26;67.30;101020.75;5076298;28;45348;-78
2022/08/22 06:06:17;;;;;;;;;13.00;11.33;;;;;21.34;67.05;101038.44;5080110;28;45266;-78
2022/08/22 06:08:59;;;;;;;;;11.00;10.00;;;;;21.30;66.51;101027.31;5075007;28;45308;-77
2022/08/22 06:11:38;;;;;;;;;11.67;11.67;;;;;21.30;66.55;101026.47;5082929;28;46324;-78
2022/08/22 06:14:36;;;;;;;;;15.33;14.33;;;;;21.41;66.92;101028.34;5078006;28;45282;-78
2022/08/22 06:17:10;;;;;;;;;12.67;11.00;;;;;21.38;67.18;101022.59;5075872;27;45340;-78
2022/08/22 06:19:40;;;;;;;;;10.67;9.33;;;;;21.42;66.62;101023.75;5074196;28;45306;-77
2022/08/22 06:22:07;;;;;;;;;11.00;10.00;;;;;21.39;66.60;101024.22;5071721;28;45300;-77
2022/08/22 06:24:36;;;;;;;;;9.33;9.33;;;;;21.45;67.08;101034.06;5077811;28;45537;-78
2022/08/22 06:27:08;;;;;;;;;14.00;13.67;;;;;21.43;66.63;101023.50;5082023;28;45460;-78
2022/08/22 06:29:52;;;;;;;;;11.00;9.00;;;;;21.51;66.58;101038.53;5081682;28;45367;-78
2022/08/22 06:32:30;;;;;;;;;11.00;9.67;;;;;21.49;66.47;101026.31;5070495;28;45417;-78
2022/08/22 06:35:02;;;;;;;;;10.00;9.00;;;;;21.56;65.76;101019.72;5061200;28;45477;-78
2022/08/22 06:37:57;;;;;;;;;10.00;8.67;;;;;21.66;64.73;101029.88;5060754;28;45597;-78
2022/08/22 06:40:25;;;;;;;;;10.00;8.67;;;;;21.61;64.27;101018.16;5067731;28;45799;-77
2022/08/22 06:42:52;;;;;;;;;9.00;9.00;;;;;21.64;63.95;101023.09;5060634;28;46525;-76
2022/08/22 06:45:29;;;;;;;;;10.00;10.00;;;;;21.69;64.29;101025.88;5061614;28;45431;-77
2022/08/22 06:48:11;;;;;;;;;12.33;11.33;;;;;21.70;64.23;101019.41;5064392;28;45153;-79
2022/08/22 06:50:40;;;;;;;;;7.33;7.00;;;;;21.80;64.34;101018.81;5076851;28;45394;-78
2022/08/22 06:53:11;;;;;;;;;9.67;9.67;;;;;21.85;64.35;101016.16;5087380;27;46730;-79
2022/08/22 06:55:40;;;;;;;;;10.00;10.00;;;;;21.88;63.92;101031.13;5082840;28;45470;-82
2022/08/22 06:58:14;;;;;;;;;9.00;9.00;;;;;21.87;64.09;101024.03;5083154;28;45454;-82
2022/08/22 07:00:41;;;;;;;;;10.00;10.00;;;;;22.01;64.07;101024.56;5079589;27;45623;-82
2022/08/22 07:03:32;;;;;;;;;7.33;7.33;;;;;21.99;63.63;101013.97;5062744;28;46429;-82
2022/08/22 07:05:58;;;;;;;;;9.67;9.67;;;;;22.10;63.24;101022.28;5076018;28;45351;-82
2022/08/22 07:08:27;;;;;;;;;12.67;11.00;;;;;22.11;62.85;101018.50;5074294;28;45291;-82
2022/08/22 07:10:56;;;;;;;;;9.33;8.67;;;;;22.26;62.33;101028.75;5068863;28;45576;-82
2022/08/22 07:13:25;;;;;;;;;12.33;10.00;;;;;22.29;62.35;101026.38;5071977;28;47099;-82
2022/08/22 07:15:55;;;;;;;;;11.00;9.33;;;;;22.36;62.09;101026.22;5079209;27;45453;-82
2022/08/22 07:18:24;;;;;;;;;8.67;8.33;;;;;22.45;61.85;101040.97;5095965;27;45310;-82
2022/08/22 07:20:53;;;;;;;;;6.67;6.33;;;;;22.52;61.60;101029.16;5070152;27;45497;-81
2022/08/22 07:23:30;;;;;;;;;8.00;8.00;;;;;22.53;61.60;101026.19;5083804;28;46464;-82
2022/08/22 07:26:20;;;;;;;;;9.00;7.33;;;;;22.68;61.59;101049.19;5082445;28;46275;-82
2022/08/22 07:29:07;;;;;;;;;8.00;8.00;;;;;22.79;60.82;101056.41;5085340;28;45598;-82
2022/08/22 07:31:41;;;;;;;;;8.00;7.67;;;;;22.80;60.86;101038.25;5085126;28;45456;-82
2022/08/22 07:34:13;;;;;;;;;10.00;8.67;;;;;22.95;60.84;101057.44;5085566;27;45428;-82
2022/08/22 07:36:59;;;;;;;;;10.33;8.67;;;;;22.98;60.50;101049.88;5083871;28;45308;-82
2022/08/22 07:39:34;;;;;;;;;10.00;8.67;;;;;23.05;60.33;101039.66;5082656;28;45282;-82
2022/08/22 07:42:28;;;;;;;;;9.33;9.33;;;;;23.27;61.06;101060.53;5069419;28;45422;-82
2022/08/22 07:45:09;;;;;;;;;7.00;7.00;;;;;23.38;59.71;101064.22;5082418;28;46322;-82
2022/08/22 07:47:52;;;;;;;;;10.00;8.67;;;;;23.42;59.78;101047.19;5082447;28;45360;-83
2022/08/22 07:50:30;;;;;;;;;8.00;8.00;;;;;23.51;59.48;101050.28;5084508;28;45326;-82
2022/08/22 07:53:27;;;;;;;;;7.00;7.00;;;;;23.58;59.79;101047.34;5064803;28;45640;-82
2022/08/22 07:55:55;;;;;;;;;6.00;6.00;;;;;23.79;59.43;101058.44;5080426;28;48058;-82
2022/08/22 07:58:25;;;;;;;;;8.33;8.33;;;;;23.82;58.56;101053.28;5083473;28;45304;-82
2022/08/22 08:00:52;;;;;;;;;9.00;9.00;;;;;23.93;58.65;101058.81;5090406;27;45425;-78
2022/08/22 08:03:22;;;;;;;;;9.00;8.00;;;;;23.99;58.15;101065.94;5060690;28;45488;-78
2022/08/22 08:05:48;;;;;;;;;9.33;8.33;;;;;23.99;58.25;101052.38;5059687;28;45331;-77
2022/08/22 08:08:39;;;;;;;;;10.67;8.67;;;;;23.99;57.45;101057.78;5058246;28;46409;-77
2022/08/22 08:11:09;;;;;;;;;7.67;7.67;;;;;23.98;57.34;101056.16;5073576;28;45286;-77
2022/08/22 08:13:40;;;;;;;;;5.33;5.00;;;;;24.03;56.49;101058.13;5063648;28;45504;-77
2022/08/22 08:16:10;;;;;;;;;12.00;11.00;;;;;24.07;57.43;101068.16;5060105;27;45471;-77
2022/08/22 08:18:38;;;;;;;;;8.00;7.67;;;;;24.09;57.15;101068.75;5059092;28;45519;-77
2022/08/22 08:21:07;;;;;;;;;9.00;7.67;;;;;24.02;57.02;101065.44;5070829;28;45381;-76
2022/08/22 08:23:52;;;;;;;;;7.67;6.33;;;;;24.04;56.84;101063.28;5079569;28;45509;-77
2022/08/22 08:26:23;;;;;;;;;9.00;7.33;;;;;24.05;57.37;101064.91;5059320;28;45330;-80
2022/08/22 08:28:52;;;;;;;;;7.67;7.33;;;;;24.03;58.12;101072.47;5073940;28;45383;-79
2022/08/22 08:31:30;;;;;;;;;9.00;9.00;;;;;24.07;57.82;101078.22;5080036;28;45235;-78
2022/08/22 08:34:06;;;;;;;;;19.00;16.67;;;;;23.96;60.72;101067.28;5077615;28;45406;-78
2022/08/22 08:37:07;;;;;;;;;6.00;6.00;;;;;23.92;58.53;101081.63;5065866;28;46456;-77
2022/08/22 08:39:42;;;;;;;;;9.00;9.00;;;;;23.87;58.65;101078.84;5068697;28;45443;-79
2022/08/22 08:42:13;;;;;;;;;11.33;9.67;;;;;23.83;57.84;101081.25;5079567;28;45357;-76
2022/08/22 08:44:50;;;;;;;;;9.00;9.00;;;;;23.84;58.24;101074.75;5070587;28;45340;-76
2022/08/22 08:47:43;;;;;;;;;15.67;15.00;;;;;23.84;58.09;101069.31;5073178;28;46622;-79
2022/08/22 08:50:57;;;;;;;;;9.33;9.00;;;;;23.94;57.99;101068.59;5063294;28;45528;-79
2022/08/22 08:53:41;;;;;;;;;9.33;8.33;;;;;23.94;56.79;101074.00;5015899;27;45531;-80
2022/08/22 08:56:22;;;;;;;;;8.00;8.00;;;;;23.87;57.39;101062.56;5078829;28;45433;-80
2022/08/22 08:59:03;;;;;;;;;7.00;7.00;;;;;23.96;57.33;101064.56;5078313;28;47215;-79
2022/08/22 09:01:31;;;;;;;;;10.00;9.00;;;;;23.95;56.62;101056.69;5080147;28;45366;-79
2022/08/22 09:04:24;;;;;;;;;9.67;8.00;;;;;23.92;56.77;101057.19;5080400;28;45439;-79
2022/08/22 09:06:52;;;;;;;;;8.33;8.33;;;;;23.93;57.41;101053.38;5078482;28;45570;-79
2022/08/22 09:09:36;;;;;;;;;7.33;7.33;;;;;23.96;57.67;101047.44;5078225;28;46461;-79
2022/08/22 09:12:33;;;;;;;;;6.67;6.67;;;;;23.93;56.39;101037.09;5079308;28;45396;-79
2022/08/22 09:15:30;;;;;;;;;8.00;8.00;;;;;24.01;56.07;101042.09;5082800;28;45306;-79
2022/08/22 09:18:07;;;;;;;;;8.67;7.00;;;;;24.05;55.22;101034.22;5056879;28;45397;-79
2022/08/22 09:20:54;;;;;;;;;6.00;6.00;;;;;24.06;55.39;101025.00;5082778;28;45389;-79
2022/08/22 09:24:03;;;;;;;;;10.33;7.67;;;;;24.11;55.13;101026.94;5082413;27;45401;-79
2022/08/22 09:26:44;;;;;;;;;6.00;5.67;;;;;24.14;55.84;101012.88;5082693;27;45325;-81
2022/08/22 09:29:32;;;;;;;;;6.00;6.00;;;;;24.22;55.01;101023.28;5082868;28;45291;-81
2022/08/22 09:32:16;;;;;;;;;8.33;8.00;;;;;24.25;55.02;101030.91;5085542;27;46748;-80
2022/08/22 09:35:01;;;;;;;;;8.00;7.67;;;;;24.27;55.48;101022.50;5081964;27;45212;-78
2022/08/22 09:37:38;;;;;;;;;8.00;6.67;;;;;24.31;55.85;101021.72;5072016;28;45277;-78
2022/08/22 09:40:14;;;;;;;;;9.67;7.67;;;;;24.42;54.92;101024.50;5079364;28;45240;-79
2022/08/22 09:42:52;;;;;;;;;8.00;8.00;;;;;24.52;55.59;101037.31;5082286;27;45668;-78
2022/08/22 09:45:39;;;;;;;;;6.00;5.33;;;;;24.58;55.04;101031.66;5082274;28;45340;-78
2022/08/22 09:48:07;;;;;;;;;7.33;5.33;;;;;24.69;55.17;101026.31;5084708;28;45321;-79
2022/08/22 09:50:54;;;;;;;;;6.33;6.33;;;;;24.70;54.88;101008.91;5076390;28;45539;-79
2022/08/22 09:53:47;;;;;;;;;5.67;5.00;;;;;24.84;54.46;101015.50;5063591;28;45421;-77
2022/08/22 09:56:22;;;;;;;;;10.00;6.33;;;;;24.90;54.14;100997.34;5071197;28;45262;-75
2022/08/22 09:59:00;;;;;;;;;7.33;6.00;;;;;25.05;54.50;101010.16;5081807;28;45288;-75
2022/08/22 10:01:38;;;;;;;;;6.67;6.67;;;;;25.06;53.68;101003.69;5074027;28;45403;-77
2022/08/22 10:04:13;;;;;;;;;5.67;4.00;;;;;25.21;52.96;100996.66;5067359;28;45447;-79
2022/08/22 10:07:03;;;;;;;;;6.67;5.00;;;;;25.24;52.13;100993.38;5063046;28;45542;-81
2022/08/22 10:09:53;;;;;;;;;5.33;4.00;;;;;25.32;52.06;101005.66;5079617;28;45479;-79
2022/08/22 10:12:28;;;;;;;;;5.00;5.00;;;;;25.38;51.59;101001.03;5081333;28;45377;-80
2022/08/22 10:15:19;;;;;;;;;3.33;3.33;;;;;25.42;49.72;101005.69;5067434;28;48391;-81
2022/08/22 10:18:00;;;;;;;;;4.00;4.00;;;;;25.57;51.60;101002.19;5084497;27;45863;-78
2022/08/22 10:20:57;;;;;;;;;3.00;3.00;;;;;25.72;50.99;101000.56;5082292;28;45396;-80
2022/08/22 10:23:32;;;;;;;;;5.67;4.00;;;;;25.90;50.71;101006.56;5076363;28;45430;-79
2022/08/22 10:26:40;;;;;;;;;6.00;4.33;;;;;26.08;50.41;101019.66;5081685;28;46668;-81
2022/08/22 10:29:24;;;;;;;;;4.00;4.00;;;;;26.30;50.98;101021.28;5072428;28;45462;-78
2022/08/22 10:31:59;;;;;;;;;4.67;3.67;;;;;26.45;49.74;101006.81;5095219;27;45442;-79
2022/08/22 10:34:34;;;;;;;;;6.00;4.33;;;;;26.70;49.72;101009.75;5081946;28;45656;-80
2022/08/22 10:37:38;;;;;;;;;5.00;5.00;;;;;26.93;49.58;101015.66;5068225;28;46091;-82
2022/08/22 10:40:17;;;;;;;;;4.67;4.67;;;;;27.04;47.94;101000.09;5068030;28;45303;-79
2022/08/22 10:42:59;;;;;;;;;5.33;5.00;;;;;27.06;48.32;101001.44;5061035;28;45425;-78
2022/08/22 10:45:34;;;;;;;;;5.00;4.67;;;;;27.25;49.02;101014.47;5063422;28;45279;-78
2022/08/22 10:48:30;;;;;;;;;5.00;5.00;;;;;27.44;47.16;101013.78;5085822;27;47600;-76
2022/08/22 10:51:09;;;;;;;;;4.33;4.33;;;;;27.57;47.26;101009.63;5081203;28;45461;-78
2022/08/22 10:53:53;;;;;;;;;4.67;4.00;;;;;27.82;47.29;101011.41;5081383;28;45274;-78
2022/08/22 10:56:31;;;;;;;;;4.67;4.00;;;;;27.98;47.61;101013.97;5081926;28;45752;-77
2022/08/22 10:59:22;;;;;;;;;5.33;5.33;;;;;28.14;46.40;101005.66;5081798;28;46377;-78
2022/08/22 11:02:14;;;;;;;;;505.40;460.20;;;;;28.34;46.42;101001.97;5077750;28;45336;-80
2022/08/22 11:04:55;;;;;;;;;4.33;4.33;;;;;28.66;45.97;101005.97;5081061;28;45520;-79
2022/08/22 11:07:57;;;;;;;;;7.00;5.00;;;;;28.89;44.36;101008.97;5081251;28;45349;-78
2022/08/22 11:11:04;;;;;;;;;5.00;5.00;;;;;29.01;45.51;101007.75;5081162;28;45303;-75
2022/08/22 11:14:05;;;;;;;;;7.33;7.33;;;;;29.15;45.39;101003.19;5083785;27;45274;-79
2022/08/22 11:17:08;;;;;;;;;7.67;4.00;;;;;29.06;44.93;101005.78;5084383;27;45364;-77
2022/08/22 11:20:06;;;;;;;;;5.67;5.00;;;;;28.99;44.87;101002.59;5080793;28;45238;-77
2022/08/22 11:22:54;;;;;;;;;5.00;5.00;;;;;29.03;44.78;100997.34;5072803;27;45724;-76
2022/08/22 11:25:50;;;;;;;;;6.00;4.33;;;;;29.13;44.55;101008.16;5080649;28;45427;-77
2022/08/22 11:28:38;;;;;;;;;3.33;3.33;;;;;29.31;44.75;101006.53;5080809;28;45237;-78
2022/08/22 11:31:21;;;;;;;;;4.67;4.00;;;;;29.36;44.21;100987.28;5067966;28;46314;-78
2022/08/22 11:34:21;;;;;;;;;3.67;3.67;;;;;29.48;44.90;100994.25;5071635;28;46344;-78
2022/08/22 11:36:54;;;;;;;;;10.00;9.00;;;;;29.56;43.83;100988.13;5074796;28;45306;-76
2022/08/22 11:39:26;;;;;;;;;10.00;10.00;;;;;29.59;43.95;100989.44;5080308;28;45566;-78
2022/08/22 11:42:10;;;;;;;;;8.00;6.33;;;;;29.53;43.21;100985.94;5080515;28;45338;-77
2022/08/22 11:44:53;;;;;;;;;6.33;6.00;;;;;29.42;43.54;100982.56;5080057;27;46211;-79
2022/08/22 11:47:27;;;;;;;;;6.67;6.67;;;;;29.42;43.50;100988.03;5080372;28;45392;-79
2022/08/22 11:50:11;;;;;;;;;5.00;3.00;;;;;29.52;42.88;101003.50;5080391;28;45646;-79
2022/08/22 11:53:05;;;;;;;;;5.33;4.33;;;;;29.59;42.99;101000.41;5080001;28;45310;-79
2022/08/22 11:55:33;;;;;;;;;5.00;5.00;;;;;29.67;43.03;100990.69;5079906;27;46404;-78
2022/08/22 11:58:32;;;;;;;;;6.33;6.33;;;;;29.67;42.11;100980.56;5080048;28;45402;-77
2022/08/22 12:01:04;;;;;;;;;4.67;4.67;;;;;29.74;42.61;100994.69;5079423;27;45451;-77
2022/08/22 12:03:32;;;;;;;;;7.33;4.33;;;;;29.73;42.87;100989.50;5080086;28;45325;-77
2022/08/22 12:06:00;;;;;;;;;5.67;5.67;;;;;29.70;43.29;100988.19;5079580;28;46110;-76
2022/08/22 12:08:28;;;;;;;;;6.00;6.00;;;;;29.69;42.62;100991.22;5079871;28;45366;-76
2022/08/22 12:11:02;;;;;;;;;5.67;5.67;;;;;29.68;42.76;100973.97;5080230;28;45295;-76
2022/08/22 12:13:52;;;;;;;;;4.67;3.67;;;;;29.87;42.98;100986.81;5079920;28;45570;-76
2022/08/22 12:16:39;;;;;;;;;4.33;4.33;;;;;29.98;42.06;100981.97;5082516;27;45555;-76
2022/08/22 12:19:21;;;;;;;;;2.33;2.33;;;;;30.21;41.84;100987.63;5080032;28;45331;-76
2022/08/22 12:22:15;;;;;;;;;3.50;3.00;;;;;30.28;40.62;100982.53;5073390;28;45666;-77
2022/08/22 12:24:59;;;;;;;;;5.00;3.67;;;;;30.59;42.13;100981.16;5079426;27;45298;-76